Flight Track Log - Related Links

Times and Time Zones

All times are in EDT time to prevent confusion due to time zone crossing. See the CDG4646 flight status page for this flight to view local times or setup timezone preferences in your user account.

Time Position Orientation Groundspeed Altitude Reporting Facility
EDT Latitude Longitude Course Direction KTS MPH feet Rate Location/Type
08:26AM 25.6749 110.8897 59° Northeast  Level Estimated
08:27AM 25.7397 111.0117 59° Northeast  Level Estimated
08:28AM 25.8045 111.1339 59° Northeast  Level Estimated
08:29AM 25.8691 111.2562 60° Northeast  Level Estimated
08:30AM 25.9337 111.3786 60° Northeast  Level Estimated
08:31AM 25.9981 111.5012 60° Northeast  Level Estimated
08:32AM 26.0625 111.6239 60° Northeast  Level Estimated
08:33AM 26.1267 111.7467 60° Northeast  Level Estimated
08:34AM 26.1908 111.8697 60° Northeast  Level Estimated
08:35AM 26.2548 111.9928 60° Northeast  Level Estimated
08:36AM 26.3188 112.1160 60° Northeast  Level Estimated
08:37AM 26.3826 112.2394 60° Northeast  Level Estimated
08:38AM 26.4463 112.3629 60° Northeast  Level Estimated
08:39AM 26.5099 112.4865 60° Northeast  Level Estimated
08:40AM 26.5734 112.6103 60° Northeast  Level Estimated
08:41AM 26.6368 112.7343 60° Northeast  Level Estimated
08:42AM 26.7001 112.8583 60° Northeast  Level Estimated
08:43AM 26.7632 112.9825 60° Northeast  Level Estimated
08:44AM 26.8263 113.1068 60° Northeast  Level Estimated
08:45AM 26.8892 113.2313 60° Northeast  Level Estimated
08:46AM 26.9521 113.3559 60° Northeast  Level Estimated
08:47AM 27.0148 113.4807 61° Northeast  Level Estimated
08:48AM 27.0774 113.6056 61° Northeast  Level Estimated
08:49AM 27.1400 113.7306 61° Northeast  Level Estimated
08:50AM 27.2024 113.8558 61° Northeast  Level Estimated
08:51AM 27.2647 113.9811 61° Northeast  Level Estimated
08:52AM 27.3269 114.1065 61° Northeast  Level Estimated
08:53AM 27.3889 114.2321 61° Northeast  Level Estimated
08:54AM 27.4509 114.3578 61° Northeast  Level Estimated
08:55AM 27.5127 114.4837 61° Northeast  Level Estimated
08:56AM 27.5745 114.6097 61° Northeast  Level Estimated
08:57AM 27.6361 114.7359 61° Northeast  Level Estimated
08:58AM 27.6976 114.8622 61° Northeast  Level Estimated
08:59AM 27.7590 114.9886 61° Northeast  Level Estimated
09:00AM 27.8202 115.1152 61° Northeast  Level Estimated
09:01AM 27.8814 115.2419 61° Northeast  Level Estimated
09:02AM 27.9424 115.3688 61° Northeast  Level Estimated
09:03AM 28.0034 115.4958 61° Northeast  Level Estimated
09:04AM 28.0642 115.6230 62° Northeast  Level Estimated
09:05AM 28.1249 115.7503 62° Northeast  Level Estimated
09:06AM 28.1854 115.8777 62° Northeast  Level Estimated
09:07AM 28.2459 116.0053 62° Northeast  Level Estimated
09:08AM 28.3062 116.1330 62° Northeast  Level Estimated
09:09AM 28.3664 116.2609 62° Northeast  Level Estimated
09:10AM 28.4265 116.3889 62° Northeast  Level Estimated
09:11AM 28.4865 116.5171 62° Northeast  Level Estimated
09:12AM 28.5464 116.6454 62° Northeast  Level Estimated
09:13AM 28.6061 116.7739 62° Northeast  Level Estimated
09:14AM 28.6657 116.9025 62° Northeast  Level Estimated
09:15AM 28.7252 117.0312 62° Northeast  Level Estimated
09:16AM 28.7846 117.1601 62° Northeast  Level Estimated
09:17AM 28.8439 117.2892 62° Northeast  Level Estimated
09:18AM 28.9030 117.4184 62° Northeast  Level Estimated
09:19AM 28.9620 117.5477 62° Northeast  Level Estimated
09:20AM 29.0209 117.6772 63° Northeast  Level Estimated
09:21AM 29.0796 117.8068 63° Northeast  Level Estimated
09:22AM 29.1383 117.9366 63° Northeast  Level Estimated
09:23AM 29.1968 118.0665 63° Northeast  Level Estimated
09:24AM 29.2551 118.1966 63° Northeast  Level Estimated
09:25AM 29.3134 118.3268 63° Northeast  Level Estimated
09:26AM 29.3715 118.4572 63° Northeast  Level Estimated
09:27AM 29.4295 118.5877 63° Northeast  Level Estimated
09:28AM 29.4874 118.7184 63° Northeast  Level Estimated
09:29AM 29.5451 118.8492 63° Northeast  Level Estimated
09:30AM 29.6028 118.9802 63° Northeast  Level Estimated
09:31AM 29.6602 119.1113 63° Northeast  Level Estimated
09:32AM 29.7176 119.2426 63° Northeast  Level Estimated
09:33AM 29.7748 119.3740 63° Northeast  Level Estimated
09:34AM 29.8319 119.5056 63° Northeast  Level Estimated
09:35AM 29.8889 119.6373 63° Northeast  Level Estimated
09:36AM 29.9457 119.7692 64° Northeast  Level Estimated
09:37AM 30.0025 119.9012 64° Northeast  Level Estimated
09:38AM 30.0590 120.0333 64° Northeast  Level Estimated
09:39AM 30.1155 120.1657 64° Northeast  Level Estimated
09:40AM 30.1718 120.2981 64° Northeast  Level Estimated
09:41AM 30.2280 120.4308 64° Northeast  Level Estimated
09:42AM 30.2283 120.4317 64° Northeast  Level Estimated
09:43AM 30.2283 120.4317 North  Level Estimated
09:44AM 30.2283 120.4317 North  Level Estimated
09:45AM 30.2283 120.4317 North  Level Estimated
09:46AM 30.2283 120.4317 North  Level Estimated
09:47AM 30.2283 120.4317 North  Level Estimated
09:48AM 30.2283 120.4317 North  Level Estimated
09:49AM 30.2283 120.4317 North  Level Estimated
09:50AM 30.2283 120.4317 North  Level Estimated
09:51AM 30.2283 120.4317 North  Level Estimated
09:52AM 30.2283 120.4317 North  Level Estimated
09:53AM 30.2283 120.4317 North  Level Estimated
09:54AM 30.2283 120.4317 North  Level Estimated
09:55AM 30.2283 120.4317 North  Level Estimated
09:56AM 30.2283 120.4317 North  Level Estimated
09:57AM 30.2283 120.4317 North  Level Estimated

Login

Don't have an account? Register now (free) for customized features, flight alerts, and more!